createdAt,value
2017-07-18T00:02:20.931Z,19.00
2017-07-18T00:04:48.488Z,18.90
2017-07-18T00:07:16.020Z,18.80
2017-07-18T00:09:43.567Z,18.80
2017-07-18T00:12:11.103Z,18.80
2017-07-18T00:14:39.419Z,18.80
2017-07-18T00:17:06.942Z,18.80
2017-07-18T00:19:34.483Z,18.80
2017-07-18T00:22:02.003Z,18.80
2017-07-18T00:24:29.552Z,18.80
2017-07-18T00:26:57.078Z,18.90
2017-07-18T00:29:25.399Z,18.80
2017-07-18T00:31:52.922Z,18.80
2017-07-18T00:34:24.411Z,18.70
2017-07-18T00:36:51.936Z,18.70
2017-07-18T00:39:20.241Z,18.60
2017-07-18T00:41:47.764Z,18.50
2017-07-18T00:44:16.088Z,18.30
2017-07-18T00:46:43.619Z,18.20
2017-07-18T00:49:11.167Z,18.20
2017-07-18T00:51:39.466Z,18.20
2017-07-18T00:54:07.018Z,18.20
2017-07-18T00:56:34.549Z,18.30
2017-07-18T00:59:02.102Z,18.40
2017-07-18T01:01:29.626Z,18.40
2017-07-18T01:03:57.181Z,18.30
2017-07-18T01:06:24.704Z,18.30
2017-07-18T01:08:52.999Z,18.30
2017-07-18T01:11:20.547Z,18.20
2017-07-18T01:13:48.829Z,18.10
2017-07-18T01:16:16.384Z,18.00
2017-07-18T01:18:44.675Z,18.10
2017-07-18T01:21:12.231Z,18.10
2017-07-18T01:23:39.750Z,18.10
2017-07-18T01:26:07.304Z,18.10
2017-07-18T01:28:34.834Z,18.10
2017-07-18T01:31:02.378Z,18.20
2017-07-18T01:33:29.898Z,18.10
2017-07-18T01:35:57.450Z,18.10
2017-07-18T01:38:24.977Z,18.20
2017-07-18T01:40:52.535Z,18.10
2017-07-18T01:43:20.059Z,18.20
2017-07-18T01:45:47.616Z,18.30
2017-07-18T01:48:15.908Z,18.30
2017-07-18T01:50:43.459Z,18.20
2017-07-18T01:53:10.991Z,18.30
2017-07-18T01:55:38.543Z,18.30
2017-07-18T01:58:06.064Z,18.20
2017-07-18T02:00:33.603Z,18.10
2017-07-18T02:03:01.155Z,18.00
2017-07-18T02:05:28.685Z,17.90
2017-07-18T02:07:56.254Z,17.80
2017-07-18T02:10:24.543Z,17.90
2017-07-18T02:12:52.860Z,17.90
2017-07-18T02:15:20.390Z,17.80
2017-07-18T02:17:47.946Z,17.80
2017-07-18T02:20:15.472Z,17.70
2017-07-18T02:22:43.049Z,17.80
2017-07-18T02:25:11.346Z,17.90
2017-07-18T02:27:38.894Z,17.90
2017-07-18T02:30:06.423Z,17.90
2017-07-18T02:32:33.998Z,17.80
2017-07-18T02:35:02.317Z,17.60
2017-07-18T02:37:29.863Z,17.60
2017-07-18T02:39:57.388Z,17.60
2017-07-18T02:42:24.935Z,17.60
2017-07-18T02:44:52.460Z,17.80
2017-07-18T02:47:20.011Z,17.80
2017-07-18T02:49:47.534Z,17.60
2017-07-18T02:52:15.092Z,17.50
2017-07-18T02:54:42.621Z,17.50
2017-07-18T02:57:10.175Z,17.50
2017-07-18T02:59:37.700Z,17.50
2017-07-18T03:02:05.251Z,17.50
2017-07-18T03:04:33.552Z,17.30
2017-07-18T03:07:01.124Z,17.30
2017-07-18T03:09:28.663Z,17.20
2017-07-18T03:11:56.191Z,17.20
2017-07-18T03:14:24.516Z,17.30
2017-07-18T03:16:52.039Z,17.30
2017-07-18T03:19:20.354Z,17.20
2017-07-18T03:21:47.887Z,17.20
2017-07-18T03:24:27.192Z,17.00
2017-07-18T03:26:54.716Z,17.00
2017-07-18T03:29:22.262Z,17.00
2017-07-18T03:31:49.819Z,16.90
2017-07-18T03:34:17.387Z,16.90
2017-07-18T03:36:44.917Z,16.80
2017-07-18T03:39:12.467Z,16.80
2017-07-18T03:41:40.766Z,16.90
2017-07-18T03:44:08.324Z,16.90
2017-07-18T03:46:35.856Z,16.90
2017-07-18T03:49:04.179Z,16.70
2017-07-18T03:51:31.699Z,16.70
2017-07-18T03:54:00.020Z,16.60
2017-07-18T03:56:27.556Z,16.60
2017-07-18T03:58:55.115Z,16.60
2017-07-18T04:01:22.639Z,16.50
2017-07-18T04:03:50.200Z,16.50
2017-07-18T04:06:17.727Z,16.50
2017-07-18T04:08:45.281Z,16.60
2017-07-18T04:11:12.814Z,16.60
2017-07-18T04:13:40.338Z,16.80
2017-07-18T04:16:07.888Z,16.90
2017-07-18T04:18:35.412Z,17.00
2017-07-18T04:21:02.955Z,17.00
2017-07-18T04:23:30.549Z,17.00
2017-07-18T04:25:58.163Z,16.90
2017-07-18T04:28:25.691Z,16.80
2017-07-18T04:30:53.248Z,16.80
2017-07-18T04:33:20.782Z,17.00
2017-07-18T04:35:48.334Z,17.20
2017-07-18T04:38:15.857Z,17.30
2017-07-18T04:40:44.187Z,16.90
2017-07-18T04:43:11.716Z,16.90
2017-07-18T04:45:39.263Z,16.80
2017-07-18T04:48:06.799Z,16.90
2017-07-18T04:50:35.112Z,17.10
2017-07-18T04:53:02.640Z,17.10
2017-07-18T04:55:30.959Z,17.30
2017-07-18T04:57:58.491Z,17.20
2017-07-18T05:00:26.057Z,17.10
2017-07-18T05:02:53.590Z,17.20
2017-07-18T05:05:21.906Z,17.10
2017-07-18T05:07:49.432Z,17.10
2017-07-18T05:10:17.747Z,17.30
2017-07-18T05:12:45.274Z,17.30
2017-07-18T05:15:13.602Z,17.60
2017-07-18T05:17:41.238Z,17.60
2017-07-18T05:20:08.764Z,17.50
2017-07-18T05:22:37.079Z,17.60
2017-07-18T05:25:04.603Z,17.60
2017-07-18T05:27:32.918Z,17.60
2017-07-18T05:30:00.443Z,17.60
2017-07-18T05:32:28.757Z,17.70
2017-07-18T05:34:56.303Z,17.70
2017-07-18T05:37:23.857Z,17.80
2017-07-18T05:39:51.387Z,17.90
2017-07-18T05:42:18.937Z,17.90
2017-07-18T05:44:46.475Z,18.10
2017-07-18T05:47:14.022Z,18.20
2017-07-18T05:49:41.550Z,18.30
2017-07-18T05:52:09.097Z,18.20
2017-07-18T05:54:36.636Z,18.30
2017-07-18T05:57:04.187Z,18.40
2017-07-18T05:59:31.721Z,18.40
2017-07-18T06:01:59.266Z,18.40
2017-07-18T06:04:26.791Z,19.20
2017-07-18T06:06:55.112Z,22.00
2017-07-18T06:09:22.638Z,22.00
2017-07-18T06:11:50.196Z,23.30
2017-07-18T06:14:18.484Z,24.90
2017-07-18T06:16:46.018Z,24.80
2017-07-18T06:19:14.339Z,26.40
2017-07-18T06:21:41.862Z,26.30
2017-07-18T06:24:10.185Z,25.00
2017-07-18T06:26:37.707Z,25.00
2017-07-18T06:29:05.262Z,25.40
2017-07-18T06:31:32.798Z,25.10
2017-07-18T06:34:00.343Z,24.50
2017-07-18T06:36:27.874Z,23.50
2017-07-18T06:38:55.423Z,23.00
2017-07-18T06:41:22.946Z,22.00
2017-07-18T06:43:51.259Z,21.70
2017-07-18T06:46:18.783Z,21.70
2017-07-18T06:48:47.099Z,21.40
2017-07-18T06:51:14.635Z,21.40
2017-07-18T06:53:42.955Z,21.50
2017-07-18T06:56:10.496Z,21.50
2017-07-18T06:58:38.049Z,21.60
2017-07-18T07:01:05.573Z,21.70
2017-07-18T07:03:33.123Z,21.80
2017-07-18T07:06:00.646Z,21.90
2017-07-18T07:08:28.188Z,21.80
2017-07-18T07:10:55.711Z,21.90
2017-07-18T07:13:24.022Z,22.00
2017-07-18T07:15:51.549Z,22.10
2017-07-18T07:18:19.116Z,21.90
2017-07-18T07:20:46.639Z,22.00
2017-07-18T07:23:14.179Z,21.90
2017-07-18T07:25:41.722Z,22.00
2017-07-18T07:28:09.244Z,22.30
2017-07-18T07:30:36.790Z,22.30
2017-07-18T07:33:04.322Z,22.50
2017-07-18T07:35:31.872Z,22.50
2017-07-18T07:37:59.398Z,22.90
2017-07-18T07:40:27.740Z,22.90
2017-07-18T07:42:55.262Z,22.80
2017-07-18T07:45:22.824Z,23.10
2017-07-18T07:47:50.346Z,23.30
2017-07-18T07:50:18.672Z,23.10
2017-07-18T07:52:46.190Z,23.10
2017-07-18T07:55:13.748Z,23.40
2017-07-18T07:57:42.047Z,23.50
2017-07-18T08:00:09.604Z,23.50
2017-07-18T08:02:37.127Z,23.60
2017-07-18T08:05:04.687Z,23.80
2017-07-18T08:07:32.217Z,23.70
2017-07-18T08:09:59.767Z,23.70
2017-07-18T08:12:27.287Z,23.70
2017-07-18T08:14:55.598Z,24.10
2017-07-18T08:17:23.114Z,24.10
2017-07-18T08:19:51.434Z,24.00
2017-07-18T08:22:18.960Z,24.00
2017-07-18T08:24:47.271Z,24.40
2017-07-18T08:27:14.790Z,24.40
2017-07-18T08:29:43.083Z,24.70
2017-07-18T08:32:10.632Z,24.60
2017-07-18T08:34:38.918Z,24.70
2017-07-18T08:37:06.463Z,24.60
2017-07-18T08:39:34.754Z,24.70
2017-07-18T08:42:02.300Z,24.60
2017-07-18T08:44:30.589Z,24.80
2017-07-18T08:46:58.139Z,24.80
2017-07-18T08:49:26.427Z,25.30
2017-07-18T08:51:53.975Z,25.20
2017-07-18T08:54:22.268Z,25.20
2017-07-18T08:56:49.822Z,25.20
2017-07-18T08:59:17.345Z,25.60
2017-07-18T09:01:44.886Z,25.60
2017-07-18T09:04:12.410Z,25.50
2017-07-18T09:06:39.963Z,25.40
2017-07-18T09:09:07.502Z,25.50
2017-07-18T09:11:35.819Z,25.70
2017-07-18T09:14:03.339Z,25.60
2017-07-18T09:16:31.656Z,25.50
2017-07-18T09:18:59.178Z,25.40
2017-07-18T09:21:27.511Z,25.40
2017-07-18T09:23:55.036Z,25.50
2017-07-18T09:26:22.567Z,25.70
2017-07-18T09:28:50.896Z,25.50
2017-07-18T09:31:18.427Z,25.50
2017-07-18T09:33:45.970Z,25.60
2017-07-18T09:36:14.266Z,25.90
2017-07-18T09:38:41.811Z,25.90
2017-07-18T09:41:10.098Z,25.70
2017-07-18T09:43:37.648Z,25.70
2017-07-18T09:46:05.938Z,25.80
2017-07-18T09:48:33.487Z,25.80
2017-07-18T09:51:01.778Z,26.20
2017-07-18T09:53:29.339Z,26.20
2017-07-18T09:55:56.868Z,26.50
2017-07-18T09:58:25.186Z,26.60
2017-07-18T10:00:52.706Z,26.60
2017-07-18T10:03:21.024Z,26.40
2017-07-18T10:05:48.548Z,26.40
2017-07-18T10:08:16.874Z,26.70
2017-07-18T10:10:44.396Z,26.70
2017-07-18T10:13:11.949Z,26.80
2017-07-18T10:15:40.238Z,27.00
2017-07-18T10:18:07.782Z,27.00
2017-07-18T10:20:36.102Z,27.30
2017-07-18T10:23:03.646Z,27.30
2017-07-18T10:25:31.165Z,27.60
2017-07-18T10:27:58.714Z,27.60
2017-07-18T10:30:27.048Z,27.20
2017-07-18T10:32:54.576Z,27.20
2017-07-18T10:35:22.140Z,27.30
2017-07-18T10:37:50.435Z,27.60
2017-07-18T10:40:17.979Z,27.60
2017-07-18T10:42:46.275Z,27.50
2017-07-18T10:45:13.832Z,27.50
2017-07-18T10:47:41.367Z,27.80
2017-07-18T10:50:09.683Z,27.70
2017-07-18T10:52:37.206Z,27.70
2017-07-18T10:55:04.752Z,27.60
2017-07-18T10:57:32.273Z,28.00
2017-07-18T10:59:59.818Z,27.90
2017-07-18T11:02:27.348Z,27.80
2017-07-18T11:04:55.668Z,28.00
2017-07-18T11:07:23.200Z,27.90
2017-07-18T11:09:50.750Z,28.30
2017-07-18T11:12:19.035Z,28.20
2017-07-18T11:14:46.579Z,28.20
2017-07-18T11:17:14.872Z,28.40
2017-07-18T11:19:42.423Z,28.30
2017-07-18T11:22:09.951Z,28.60
2017-07-18T11:24:37.503Z,28.70
2017-07-18T11:27:05.022Z,28.70
2017-07-18T11:29:32.587Z,28.40
2017-07-18T11:32:00.107Z,28.50
2017-07-18T11:34:28.398Z,29.20
2017-07-18T11:36:55.947Z,29.20
2017-07-18T11:39:24.267Z,29.50
2017-07-18T11:41:51.816Z,29.50
2017-07-18T11:44:19.346Z,29.70
2017-07-18T11:46:47.661Z,29.90
2017-07-18T11:49:15.188Z,30.00
2017-07-18T11:51:43.498Z,30.10
2017-07-18T11:54:11.014Z,30.20
2017-07-18T11:56:39.336Z,29.70
2017-07-18T11:59:06.874Z,29.70
2017-07-18T12:01:34.418Z,29.90
2017-07-18T12:04:02.708Z,29.80
2017-07-18T12:06:30.263Z,29.80
2017-07-18T12:08:57.794Z,29.70
2017-07-18T12:11:25.343Z,29.60
2017-07-18T12:13:52.870Z,29.50
2017-07-18T12:16:20.413Z,29.60
2017-07-18T12:18:59.608Z,29.80
2017-07-18T12:21:27.937Z,29.70
2017-07-18T12:23:55.460Z,29.70
2017-07-18T12:26:23.782Z,29.50
2017-07-18T12:28:51.307Z,29.50
2017-07-18T12:31:18.835Z,29.90
2017-07-18T12:33:46.383Z,30.00
2017-07-18T12:36:13.906Z,30.10
2017-07-18T12:38:41.451Z,29.90
2017-07-18T12:41:08.979Z,29.60
2017-07-18T12:43:36.533Z,29.50
2017-07-18T12:46:04.063Z,29.40
2017-07-18T12:48:31.615Z,29.50
2017-07-18T12:50:59.138Z,29.50
2017-07-18T12:53:26.707Z,29.60
2017-07-18T12:55:54.248Z,29.80
2017-07-18T12:58:22.564Z,30.50
2017-07-18T13:00:50.078Z,30.50
2017-07-18T13:03:18.400Z,30.10
2017-07-18T13:05:45.924Z,30.10
2017-07-18T13:08:13.470Z,30.50
2017-07-18T13:10:41.762Z,29.00
2017-07-18T13:13:10.078Z,29.40
2017-07-18T13:15:37.612Z,29.30
2017-07-18T13:18:05.171Z,29.80
2017-07-18T13:20:32.699Z,29.70
2017-07-18T13:23:00.243Z,29.30
2017-07-18T13:25:27.779Z,30.10
2017-07-18T13:27:55.330Z,30.00
2017-07-18T13:30:22.851Z,29.80
2017-07-18T13:32:51.183Z,30.30
2017-07-18T13:35:18.706Z,30.30
2017-07-18T13:37:46.236Z,30.90
2017-07-18T13:40:14.554Z,30.40
2017-07-18T13:42:42.073Z,30.40
2017-07-18T13:45:10.390Z,31.40
2017-07-18T13:47:37.911Z,31.40
2017-07-18T13:50:06.222Z,30.80
2017-07-18T13:52:33.737Z,30.70
2017-07-18T13:55:01.283Z,30.40
2017-07-18T13:57:28.810Z,30.00
2017-07-18T13:59:56.355Z,30.50
2017-07-18T14:02:23.888Z,31.00
2017-07-18T14:04:52.208Z,31.50
2017-07-18T14:07:19.731Z,31.40
2017-07-18T14:09:47.286Z,31.90
2017-07-18T14:12:15.575Z,32.00
2017-07-18T14:14:43.119Z,32.00
2017-07-18T14:17:11.407Z,31.40
2017-07-18T14:19:39.724Z,31.50
2017-07-18T14:22:07.250Z,31.40
2017-07-18T14:24:34.798Z,30.90
2017-07-18T14:27:03.082Z,30.80
2017-07-18T14:29:31.394Z,31.20
2017-07-18T14:31:58.915Z,31.10
2017-07-18T14:34:27.230Z,31.60
2017-07-18T14:36:54.755Z,31.50
2017-07-18T14:39:22.275Z,31.70
2017-07-18T14:41:49.822Z,31.60
2017-07-18T14:44:17.341Z,31.80
2017-07-18T14:46:44.891Z,31.50
2017-07-18T14:49:12.418Z,31.90
2017-07-18T14:51:39.962Z,31.50
2017-07-18T14:54:07.494Z,31.20
2017-07-18T14:56:35.043Z,31.30
2017-07-18T14:59:02.566Z,30.80
2017-07-18T15:01:30.120Z,31.30
2017-07-18T15:03:57.648Z,31.70
2017-07-18T15:06:25.199Z,31.50
2017-07-18T15:08:52.720Z,31.00
2017-07-18T15:11:21.036Z,30.70
2017-07-18T15:13:48.580Z,30.70
2017-07-18T15:16:16.121Z,31.00
2017-07-18T15:18:44.419Z,30.70
2017-07-18T15:21:11.972Z,30.70
2017-07-18T15:23:39.499Z,30.80
2017-07-18T15:26:07.058Z,30.20
2017-07-18T15:28:34.582Z,30.20
2017-07-18T15:31:02.132Z,30.00
2017-07-18T15:33:29.659Z,30.20
2017-07-18T15:35:57.226Z,30.30
2017-07-18T15:38:24.782Z,30.20
2017-07-18T15:40:52.308Z,30.20
2017-07-18T15:43:19.862Z,30.60
2017-07-18T15:45:47.410Z,29.90
2017-07-18T15:48:14.954Z,30.40
2017-07-18T15:50:42.483Z,30.00
2017-07-18T15:53:10.031Z,30.10
2017-07-18T15:55:37.553Z,30.30
2017-07-18T15:58:05.100Z,30.30
2017-07-18T16:00:32.628Z,30.50
2017-07-18T16:03:00.188Z,30.60
2017-07-18T16:05:27.714Z,30.20
2017-07-18T16:07:55.269Z,30.20
2017-07-18T16:10:23.589Z,30.40
2017-07-18T16:12:51.138Z,30.40
2017-07-18T16:15:18.659Z,30.30
2017-07-18T16:17:46.215Z,30.40
2017-07-18T16:20:13.753Z,30.40
2017-07-18T16:22:41.307Z,30.50
2017-07-18T16:25:08.834Z,30.30
2017-07-18T16:27:36.378Z,30.40
2017-07-18T16:30:04.670Z,30.80
2017-07-18T16:32:32.234Z,30.70
2017-07-18T16:34:59.788Z,30.80
2017-07-18T16:37:27.315Z,30.10
2017-07-18T16:39:54.854Z,30.20
2017-07-18T16:42:22.381Z,29.70
2017-07-18T16:44:49.931Z,29.40
2017-07-18T16:47:17.455Z,29.20
2017-07-18T16:49:45.002Z,29.00
2017-07-18T16:52:12.523Z,28.80
2017-07-18T16:54:40.070Z,28.40
2017-07-18T16:57:07.591Z,28.20
2017-07-18T16:59:35.138Z,28.30
2017-07-18T17:02:02.659Z,28.50
2017-07-18T17:04:30.213Z,28.70
2017-07-18T17:06:57.738Z,28.60
2017-07-18T17:09:26.050Z,29.60
2017-07-18T17:11:53.575Z,29.60
2017-07-18T17:14:21.901Z,31.00
2017-07-18T17:16:49.424Z,31.00
2017-07-18T17:19:16.979Z,30.90
2017-07-18T17:21:44.508Z,30.30
2017-07-18T17:24:12.050Z,30.00
2017-07-18T17:26:39.571Z,29.50
2017-07-18T17:29:07.125Z,29.20
2017-07-18T17:31:34.646Z,28.80
2017-07-18T17:34:02.190Z,28.60
2017-07-18T17:36:29.718Z,28.30
2017-07-18T17:38:57.255Z,28.10
2017-07-18T17:41:25.570Z,27.70
2017-07-18T17:43:53.098Z,27.70
2017-07-18T17:46:20.635Z,27.50
2017-07-18T17:48:48.154Z,27.30
2017-07-18T17:51:15.703Z,27.20
2017-07-18T17:53:43.227Z,27.20
2017-07-18T17:56:11.535Z,27.20
2017-07-18T17:58:39.063Z,27.20
2017-07-18T18:01:06.609Z,27.30
2017-07-18T18:03:34.131Z,27.30
2017-07-18T18:06:01.682Z,27.30
2017-07-18T18:08:29.198Z,27.30
2017-07-18T18:10:57.524Z,27.10
2017-07-18T18:13:25.047Z,27.10
2017-07-18T18:15:52.603Z,27.00
2017-07-18T18:18:20.124Z,26.80
2017-07-18T18:20:47.676Z,26.70
2017-07-18T18:23:15.199Z,26.60
2017-07-18T18:25:42.751Z,26.40
2017-07-18T18:28:10.282Z,26.30
2017-07-18T18:30:38.604Z,26.30
2017-07-18T18:33:06.131Z,26.30
2017-07-18T18:35:34.466Z,26.20
2017-07-18T18:38:01.991Z,26.10
2017-07-18T18:40:29.530Z,26.00
2017-07-18T18:42:57.851Z,25.90
2017-07-18T18:45:25.377Z,25.90
2017-07-18T18:47:52.923Z,25.90
2017-07-18T18:50:21.215Z,25.70
2017-07-18T18:52:48.758Z,25.60
2017-07-18T18:55:17.051Z,25.50
2017-07-18T18:57:44.611Z,25.50
2017-07-18T19:00:12.138Z,25.40
2017-07-18T19:02:39.695Z,25.30
2017-07-18T19:05:07.219Z,25.20
2017-07-18T19:07:34.769Z,25.10
2017-07-18T19:10:02.853Z,25.00
2017-07-18T19:12:30.424Z,25.00
2017-07-18T19:14:57.947Z,24.90
2017-07-18T19:17:25.500Z,24.80
2017-07-18T19:19:53.092Z,24.70
2017-07-18T19:22:20.657Z,24.60
2017-07-18T19:24:48.342Z,24.50
2017-07-18T19:27:16.805Z,24.30
2017-07-18T19:29:44.344Z,24.30
2017-07-18T19:32:11.954Z,24.30
2017-07-18T19:34:39.834Z,24.20
2017-07-18T19:37:07.419Z,24.00
2017-07-18T19:39:34.951Z,24.00
2017-07-18T19:42:02.488Z,23.80
2017-07-18T19:44:30.062Z,23.80
2017-07-18T19:46:58.371Z,23.70
2017-07-18T19:49:25.926Z,23.70
2017-07-18T19:51:53.474Z,23.60
2017-07-18T19:54:21.667Z,23.60
2017-07-18T19:56:49.259Z,23.50
2017-07-18T19:59:16.830Z,23.40
2017-07-18T20:01:44.366Z,23.40
2017-07-18T20:04:11.920Z,23.30
2017-07-18T20:06:39.451Z,23.20
2017-07-18T20:09:08.262Z,23.20
2017-07-18T20:11:35.791Z,23.20
2017-07-18T20:14:04.111Z,23.10
2017-07-18T20:16:31.643Z,23.10
2017-07-18T20:18:59.200Z,23.10
2017-07-18T20:21:28.132Z,23.10
2017-07-18T20:23:56.523Z,23.10
2017-07-18T20:26:24.054Z,23.10
2017-07-18T20:28:51.611Z,23.10
2017-07-18T20:31:19.139Z,23.10
2017-07-18T20:33:47.406Z,23.10
2017-07-18T20:36:15.707Z,23.00
2017-07-18T20:38:43.270Z,23.00
2017-07-18T20:41:10.810Z,23.00
2017-07-18T20:43:39.102Z,23.10
2017-07-18T20:46:06.654Z,23.00
2017-07-18T20:48:34.190Z,23.00
2017-07-18T20:51:01.750Z,23.10
2017-07-18T20:53:29.279Z,23.00
2017-07-18T20:55:56.833Z,23.00
2017-07-18T20:58:24.362Z,22.90
2017-07-18T21:00:51.918Z,22.80
2017-07-18T21:03:19.455Z,22.70
2017-07-18T21:05:47.767Z,22.60
2017-07-18T21:08:15.388Z,22.60
2017-07-18T21:10:42.938Z,22.50
2017-07-18T21:13:10.463Z,22.50
2017-07-18T21:15:38.010Z,22.50
2017-07-18T21:18:05.534Z,22.50
2017-07-18T21:20:33.845Z,22.40
2017-07-18T21:23:01.379Z,22.40
2017-07-18T21:25:29.697Z,22.30
2017-07-18T21:27:57.235Z,22.20
2017-07-18T21:30:24.778Z,22.20
2017-07-18T21:32:53.062Z,22.10
2017-07-18T21:35:20.615Z,22.10
2017-07-18T21:37:48.137Z,22.10
2017-07-18T21:40:15.682Z,22.10
2017-07-18T21:42:43.215Z,22.00
2017-07-18T21:45:10.742Z,22.00
2017-07-18T21:47:39.066Z,22.00
2017-07-18T21:50:06.595Z,22.00
2017-07-18T21:52:34.140Z,21.90
2017-07-18T21:55:02.445Z,21.80
2017-07-18T21:57:30.004Z,21.70
2017-07-18T21:59:57.530Z,21.80
2017-07-18T22:02:25.847Z,21.80
2017-07-18T22:04:53.371Z,21.70
2017-07-18T22:07:21.696Z,21.90
2017-07-18T22:09:49.219Z,21.90
2017-07-18T22:12:16.767Z,21.80
2017-07-18T22:14:45.063Z,21.90
2017-07-18T22:17:12.610Z,21.90
2017-07-18T22:19:40.134Z,21.90
2017-07-18T22:22:07.684Z,21.80
2017-07-18T22:24:35.202Z,21.80
2017-07-18T22:27:02.758Z,21.80
2017-07-18T22:29:30.282Z,21.70
2017-07-18T22:50:58.747Z,21.20
2017-07-18T22:53:26.300Z,21.20
2017-07-18T22:55:53.827Z,21.30
2017-07-18T22:58:22.149Z,21.30
2017-07-18T23:00:49.686Z,21.30
2017-07-18T23:03:17.239Z,21.40
2017-07-18T23:05:45.523Z,21.40
2017-07-18T23:08:13.082Z,21.30
2017-07-18T23:10:40.607Z,21.40
2017-07-18T23:13:08.162Z,21.40
2017-07-18T23:15:35.686Z,21.40
2017-07-18T23:18:03.208Z,21.40
2017-07-18T23:20:30.768Z,21.40
2017-07-18T23:22:58.298Z,21.40
2017-07-18T23:25:25.852Z,21.40
2017-07-18T23:27:53.374Z,21.30
2017-07-18T23:30:20.929Z,21.20
2017-07-18T23:32:48.464Z,21.30
2017-07-18T23:35:16.782Z,21.10
2017-07-18T23:37:44.314Z,21.10
2017-07-18T23:40:11.868Z,21.10
2017-07-18T23:42:40.154Z,20.90
2017-07-18T23:45:07.702Z,20.90
2017-07-18T23:47:35.993Z,20.90
2017-07-18T23:50:03.547Z,20.80
2017-07-18T23:52:31.079Z,20.90
2017-07-18T23:54:58.622Z,20.90
2017-07-18T23:57:26.146Z,20.90
2017-07-18T23:59:53.690Z,20.90
